Time;durP1;ratioP1;P1;durP2;ratioP2;P2;SDS_P1;SDS_P2;PMS_P1;PMS_P2;Temp;Humidity;BMP_temperature;BMP_pressure;BME280_temperature;BME280_humidity;BME280_pressure;Samples;Min_cycle;Max_cycle;Signal;HPM_P1;HPM_P2
2021/08/25 00:01:23;;;;;;;0.00;0.00;;;;;;;23.65;100.00;100395.34;5067398;28;20091;-70
2021/08/25 00:03:49;;;;;;;0.00;0.00;;;;;;;24.14;100.00;100387.66;5070013;28;20056;-68
2021/08/25 00:06:14;;;;;;;0.00;0.00;;;;;;;24.39;100.00;100390.50;5068835;28;20047;-68
2021/08/25 00:08:40;;;;;;;0.10;0.00;;;;;;;24.59;100.00;100396.31;5068880;28;20059;-67
2021/08/25 00:11:06;;;;;;;0.00;0.00;;;;;;;24.73;100.00;100390.84;5031772;28;20045;-67
2021/08/25 00:13:32;;;;;;;0.00;0.00;;;;;;;24.84;100.00;100388.28;5064705;28;20080;-67
2021/08/25 00:15:58;;;;;;;0.00;0.00;;;;;;;24.92;100.00;100387.78;5036753;28;20682;-67
2021/08/25 00:18:24;;;;;;;0.00;0.00;;;;;;;24.97;100.00;100386.47;5020132;28;20083;-68
2021/08/25 00:20:50;;;;;;;0.00;0.00;;;;;;;25.02;100.00;100380.72;5020161;28;20509;-67
2021/08/25 00:23:16;;;;;;;0.00;0.00;;;;;;;25.03;100.00;100383.34;5036302;28;20091;-69
2021/08/25 00:25:42;;;;;;;0.00;0.00;;;;;;;25.10;100.00;100381.06;5037988;28;20044;-69
2021/08/25 00:28:08;;;;;;;0.00;0.00;;;;;;;25.15;100.00;100381.59;5065751;28;20071;-69
2021/08/25 00:30:34;;;;;;;0.00;0.00;;;;;;;25.18;100.00;100381.41;5049438;28;20060;-70
2021/08/25 00:33:02;;;;;;;0.00;0.00;;;;;;;25.21;100.00;100387.50;5067232;28;20093;-70
2021/08/25 00:35:30;;;;;;;0.10;0.00;;;;;;;25.22;100.00;100381.09;5067182;28;20076;-71
2021/08/25 00:37:56;;;;;;;0.00;0.00;;;;;;;25.22;100.00;100381.09;5067610;28;20047;-70
2021/08/25 00:40:22;;;;;;;0.00;0.00;;;;;;;25.22;100.00;100383.81;5069665;28;20041;-70
2021/08/25 00:42:48;;;;;;;0.00;0.00;;;;;;;25.23;100.00;100380.09;5051535;28;20035;-70
2021/08/25 00:45:16;;;;;;;0.00;0.00;;;;;;;25.28;100.00;100387.97;5066966;28;20503;-70
2021/08/25 00:47:43;;;;;;;0.00;0.00;;;;;;;25.29;100.00;100382.44;5034514;28;20475;-68
2021/08/25 00:50:11;;;;;;;0.00;0.00;;;;;;;25.29;100.00;100381.56;5050621;28;20118;-69
2021/08/25 00:52:39;;;;;;;0.00;0.00;;;;;;;25.26;100.00;100377.19;5058696;28;20129;-70
2021/08/25 00:55:06;;;;;;;0.00;0.00;;;;;;;25.24;100.00;100379.13;5020002;28;20041;-69
2021/08/25 00:57:36;;;;;;;0.00;0.00;;;;;;;25.28;100.00;100374.41;5048440;28;20047;-69
2021/08/25 01:00:11;;;;;;;0.00;0.00;;;;;;;25.30;100.00;100372.41;5052080;28;20045;-69
2021/08/25 01:03:15;;;;;;;0.00;0.00;;;;;;;25.30;100.00;100388.72;5029112;28;20047;-70
2021/08/25 01:05:42;;;;;;;0.00;0.00;;;;;;;25.31;100.00;100382.28;4985520;28;20130;-70
2021/08/25 01:08:14;;;;;;;0.00;0.00;;;;;;;25.31;100.00;100376.88;4987485;28;20057;-70
2021/08/25 01:10:40;;;;;;;0.00;0.00;;;;;;;25.33;100.00;100364.94;4987442;28;20060;-70
2021/08/25 01:13:08;;;;;;;0.00;0.00;;;;;;;25.29;100.00;100363.44;4983599;28;20168;-70
2021/08/25 01:15:37;;;;;;;0.00;0.00;;;;;;;25.35;100.00;100371.13;4968921;28;20121;-69
2021/08/25 01:18:05;;;;;;;0.00;0.00;;;;;;;25.35;100.00;100379.28;4985244;28;20038;-68
2021/08/25 01:20:32;;;;;;;0.00;0.00;;;;;;;25.35;100.00;100373.84;4983423;28;20225;-70
2021/08/25 01:22:59;;;;;;;0.00;0.00;;;;;;;25.37;100.00;100368.31;4969041;28;20626;-69
2021/08/25 01:25:26;;;;;;;0.00;0.00;;;;;;;25.38;100.00;100378.19;4985104;28;20137;-68
2021/08/25 01:28:00;;;;;;;0.00;0.00;;;;;;;25.39;100.00;100379.91;4969947;28;20054;-71
2021/08/25 01:30:31;;;;;;;0.00;0.00;;;;;;;25.37;100.00;100366.47;4986872;28;20510;-71
2021/08/25 01:32:59;;;;;;;0.00;0.00;;;;;;;25.38;100.00;100375.47;4987084;28;20042;-71
2021/08/25 01:35:38;;;;;;;0.00;0.00;;;;;;;25.38;100.00;100376.34;4969745;28;20054;-71
2021/08/25 01:38:05;;;;;;;0.00;0.00;;;;;;;25.42;100.00;100380.56;4970804;28;20050;-67
2021/08/25 01:40:35;;;;;;;0.00;0.00;;;;;;;25.43;100.00;100376.00;4996249;28;20506;-68
2021/08/25 01:43:07;;;;;;;0.00;0.00;;;;;;;25.41;100.00;100373.41;5025684;28;20051;-68
2021/08/25 01:45:33;;;;;;;0.00;0.00;;;;;;;25.43;100.00;100379.59;5027248;28;20480;-67
2021/08/25 01:48:03;;;;;;;0.00;0.00;;;;;;;25.42;100.00;100372.44;5027326;28;20045;-67
2021/08/25 01:50:29;;;;;;;0.00;0.00;;;;;;;25.41;100.00;100369.81;5026147;28;20037;-67
2021/08/25 01:52:55;;;;;;;0.00;0.00;;;;;;;25.44;100.00;100373.19;5027500;28;20441;-67
2021/08/25 01:55:21;;;;;;;0.00;0.00;;;;;;;25.44;100.00;100375.03;5028341;28;20068;-67
2021/08/25 01:57:47;;;;;;;0.00;0.00;;;;;;;25.43;100.00;100367.84;5027226;28;20049;-68
2021/08/25 02:00:14;;;;;;;0.00;0.00;;;;;;;25.42;100.00;100375.16;5026661;28;20049;-67
2021/08/25 02:02:40;;;;;;;0.00;0.00;;;;;;;25.44;100.00;100375.88;5028230;28;20167;-68
2021/08/25 02:05:06;;;;;;;0.00;0.00;;;;;;;25.44;100.00;100372.31;5010556;28;20077;-69
2021/08/25 02:07:32;;;;;;;0.00;0.00;;;;;;;25.43;100.00;100373.28;5025230;28;20127;-69
2021/08/25 02:09:58;;;;;;;0.00;0.00;;;;;;;25.42;100.00;100371.56;5028334;28;20160;-69
2021/08/25 02:12:23;;;;;;;0.00;0.00;;;;;;;25.43;100.00;100371.44;5027346;28;20045;-69
2021/08/25 02:14:49;;;;;;;0.00;0.00;;;;;;;25.43;100.00;100379.59;4993977;28;20045;-69
2021/08/25 02:17:15;;;;;;;0.00;0.00;;;;;;;25.44;100.00;100377.75;5024934;28;20042;-67
2021/08/25 02:19:41;;;;;;;0.00;0.00;;;;;;;25.43;100.00;100379.59;5028350;28;20048;-67
2021/08/25 02:22:09;;;;;;;0.00;0.00;;;;;;;25.41;100.00;100361.69;5026708;28;20047;-68
2021/08/25 02:24:35;;;;;;;0.00;0.00;;;;;;;25.45;100.00;100376.78;5026940;28;20033;-69
2021/08/25 02:27:01;;;;;;;0.00;0.00;;;;;;;25.43;100.00;100367.84;5026308;28;20049;-68
2021/08/25 02:29:27;;;;;;;0.00;0.00;;;;;;;25.41;100.00;100376.13;5026646;28;20395;-68
2021/08/25 02:31:55;;;;;;;0.00;0.00;;;;;;;25.40;100.00;100371.66;5026615;28;20057;-68
2021/08/25 02:34:21;;;;;;;0.00;0.00;;;;;;;25.39;100.00;100375.34;5024929;28;20434;-69
2021/08/25 02:36:46;;;;;;;0.00;0.00;;;;;;;25.38;100.00;100373.63;5026774;28;20045;-70
2021/08/25 02:39:12;;;;;;;0.00;0.00;;;;;;;25.39;100.00;100374.47;5026579;28;20106;-69
2021/08/25 02:41:38;;;;;;;0.00;0.00;;;;;;;25.39;100.00;100371.75;5025955;28;20505;-66
2021/08/25 02:44:04;;;;;;;0.00;0.00;;;;;;;25.40;100.00;100368.09;5024620;28;20079;-66
2021/08/25 02:46:30;;;;;;;0.00;0.00;;;;;;;25.43;100.00;100376.00;5024274;28;20041;-66
2021/08/25 02:48:56;;;;;;;0.00;0.00;;;;;;;25.42;100.00;100375.16;5025557;28;20774;-66
2021/08/25 02:51:22;;;;;;;0.00;0.00;;;;;;;25.42;100.00;100375.16;5023973;28;20037;-65
2021/08/25 02:53:48;;;;;;;0.00;0.00;;;;;;;25.42;100.00;100369.72;5025647;28;20038;-65
2021/08/25 02:56:14;;;;;;;0.00;0.00;;;;;;;25.41;100.00;100368.00;5025607;28;20132;-67
2021/08/25 02:58:40;;;;;;;0.00;0.00;;;;;;;25.44;100.00;100375.03;5007914;28;20045;-69
2021/08/25 03:01:07;;;;;;;0.00;0.00;;;;;;;25.42;100.00;100371.56;5022264;28;20113;-67
2021/08/25 03:03:32;;;;;;;0.00;0.00;;;;;;;25.45;100.00;100374.94;5026218;28;20049;-69
2021/08/25 03:05:58;;;;;;;0.60;0.00;;;;;;;25.45;100.00;100376.78;5027321;28;20153;-70
2021/08/25 03:08:24;;;;;;;0.00;0.00;;;;;;;25.43;100.00;100381.44;5044379;28;20056;-71
2021/08/25 03:10:50;;;;;;;0.00;0.00;;;;;;;25.43;100.00;100381.44;5044656;28;20045;-71
2021/08/25 03:13:16;;;;;;;0.00;0.00;;;;;;;25.43;100.00;100386.84;5046152;28;20416;-70
2021/08/25 03:15:42;;;;;;;0.00;0.00;;;;;;;25.46;100.00;100382.09;5047320;28;20040;-71
2021/08/25 03:18:08;;;;;;;0.00;0.00;;;;;;;25.43;100.00;100376.00;5047980;28;20580;-72
2021/08/25 03:20:35;;;;;;;0.00;0.00;;;;;;;25.40;100.00;100374.38;5051211;28;20040;-72
2021/08/25 03:23:01;;;;;;;0.00;0.00;;;;;;;25.42;100.00;100385.13;5033120;28;20510;-73
2021/08/25 03:25:27;;;;;;;0.00;0.00;;;;;;;25.43;100.00;100374.16;5033445;28;20509;-73
2021/08/25 03:27:55;;;;;;;0.00;0.00;;;;;;;25.42;100.00;100380.56;5031576;28;20049;-72
2021/08/25 03:30:21;;;;;;;0.00;0.00;;;;;;;25.43;100.00;100386.84;5056768;28;20084;-73
2021/08/25 03:32:47;;;;;;;0.00;0.00;;;;;;;25.39;100.00;100385.34;5071050;28;20094;-73
2021/08/25 03:35:13;;;;;;;0.00;0.00;;;;;;;25.42;100.00;100390.56;5068934;28;20041;-71
2021/08/25 03:37:39;;;;;;;0.00;0.00;;;;;;;25.41;100.00;100394.25;5036682;28;20869;-71
2021/08/25 03:40:09;;;;;;;0.00;0.00;;;;;;;25.40;100.00;100389.81;5053156;28;20052;-71
2021/08/25 03:42:35;;;;;;;0.00;0.00;;;;;;;25.42;100.00;100387.84;5035738;28;20076;-70
2021/08/25 03:45:02;;;;;;;0.00;0.00;;;;;;;25.43;100.00;100395.00;5069391;28;20075;-72
2021/08/25 03:47:31;;;;;;;0.00;0.00;;;;;;;25.43;100.00;100392.28;5070498;28;20041;-72
2021/08/25 03:49:58;;;;;;;0.00;0.00;;;;;;;25.39;100.00;100388.94;5070245;28;20072;-72
2021/08/25 03:52:24;;;;;;;0.03;0.00;;;;;;;25.40;100.00;100387.09;5050580;28;20043;-71
2021/08/25 03:54:50;;;;;;;0.00;0.00;;;;;;;25.41;100.00;100377.97;5070294;28;20048;-71
2021/08/25 03:57:16;;;;;;;0.00;0.00;;;;;;;25.45;100.00;100390.34;5070233;28;20089;-71
2021/08/25 03:59:42;;;;;;;0.00;0.00;;;;;;;25.43;100.00;100385.03;5052136;28;20070;-71
2021/08/25 04:02:08;;;;;;;0.00;0.00;;;;;;;25.45;100.00;100382.19;5051363;28;20044;-71
2021/08/25 04:04:34;;;;;;;0.00;0.00;;;;;;;25.44;100.00;100381.31;5052447;28;20334;-72
2021/08/25 04:07:00;;;;;;;0.00;0.00;;;;;;;25.42;100.00;100380.56;5070421;28;20055;-71
2021/08/25 04:09:26;;;;;;;0.00;0.00;;;;;;;25.45;100.00;100376.78;5068095;28;20045;-71
2021/08/25 04:11:52;;;;;;;0.00;0.00;;;;;;;25.45;100.00;100379.50;5052140;28;20059;-72
2021/08/25 04:14:17;;;;;;;0.00;0.00;;;;;;;25.44;100.00;100375.03;5071249;28;20127;-71
2021/08/25 04:16:43;;;;;;;0.00;0.00;;;;;;;25.48;100.00;100382.00;5070046;28;20105;-69
2021/08/25 04:19:09;;;;;;;0.00;0.00;;;;;;;25.47;100.00;100393.81;5068125;28;20055;-69
2021/08/25 04:21:35;;;;;;;0.00;0.00;;;;;;;25.47;100.00;100388.38;5052166;28;20127;-70
2021/08/25 04:24:01;;;;;;;0.00;0.00;;;;;;;25.47;100.00;100386.53;5069724;28;20044;-69
2021/08/25 04:26:27;;;;;;;0.00;0.00;;;;;;;25.46;100.00;100384.81;5068925;28;20054;-70
2021/08/25 04:28:55;;;;;;;0.00;0.00;;;;;;;25.46;100.00;100382.09;5034107;28;20045;-68
2021/08/25 04:31:21;;;;;;;0.00;0.00;;;;;;;25.47;100.00;100388.38;5051548;28;20066;-68
2021/08/25 04:33:47;;;;;;;0.13;0.00;;;;;;;25.43;100.00;100382.31;5035205;28;20040;-69
2021/08/25 04:36:14;;;;;;;0.00;0.00;;;;;;;25.44;100.00;100381.31;5067598;28;20052;-70
2021/08/25 04:38:40;;;;;;;0.00;0.00;;;;;;;25.41;100.00;100378.84;5069727;28;20447;-70
2021/08/25 04:41:07;;;;;;;0.00;0.00;;;;;;;25.42;100.00;100377.88;5069710;28;20596;-70
2021/08/25 04:43:35;;;;;;;0.00;0.00;;;;;;;25.46;100.00;100387.53;5017988;28;20066;-70
2021/08/25 04:46:01;;;;;;;0.00;0.00;;;;;;;25.43;100.00;100376.88;5051348;28;20185;-69
2021/08/25 04:48:26;;;;;;;0.00;0.00;;;;;;;25.41;100.00;100372.53;5069571;28;20443;-69
2021/08/25 04:50:52;;;;;;;0.00;0.00;;;;;;;25.44;100.00;100373.19;5069412;28;20052;-70
2021/08/25 04:53:21;;;;;;;0.00;0.00;;;;;;;25.48;100.00;100379.28;5049299;28;20435;-69
2021/08/25 04:55:47;;;;;;;0.00;0.00;;;;;;;25.45;100.00;100366.78;5051306;28;20047;-69
2021/08/25 04:58:18;;;;;;;0.08;0.00;;;;;;;25.50;100.00;100370.03;5035110;28;20127;-68
2021/08/25 05:00:46;;;;;;;0.00;0.00;;;;;;;25.49;100.00;100360.16;5048888;28;20040;-71
2021/08/25 05:03:13;;;;;;;0.00;0.00;;;;;;;25.53;100.00;100366.22;5051237;28;20044;-71
2021/08/25 05:05:39;;;;;;;0.00;0.00;;;;;;;25.52;100.00;100367.22;5068407;28;20048;-68
2021/08/25 05:08:05;;;;;;;0.00;0.00;;;;;;;25.52;100.00;100370.78;5068707;28;20386;-68
2021/08/25 05:10:31;;;;;;;0.00;0.00;;;;;;;25.56;100.00;100375.00;5048413;28;20044;-68
2021/08/25 05:12:57;;;;;;;0.00;0.00;;;;;;;25.55;100.00;100369.69;5051026;28;20431;-68
2021/08/25 05:15:24;;;;;;;0.00;0.00;;;;;;;25.54;100.00;100363.41;5050425;28;20044;-68
2021/08/25 05:17:50;;;;;;;0.00;0.00;;;;;;;25.56;100.00;100372.28;5032532;28;20369;-69
2021/08/25 05:20:16;;;;;;;0.00;0.00;;;;;;;25.57;100.00;100365.03;5050832;28;20040;-68
2021/08/25 05:22:41;;;;;;;0.00;0.00;;;;;;;25.57;100.00;100368.63;5068218;28;20051;-68
2021/08/25 05:25:08;;;;;;;0.00;0.00;;;;;;;25.59;100.00;100363.94;5050762;28;20056;-67
2021/08/25 05:27:34;;;;;;;0.00;0.00;;;;;;;25.53;100.00;100356.25;5048072;28;20044;-68
2021/08/25 05:30:00;;;;;;;0.00;0.00;;;;;;;25.60;100.00;100365.66;5068703;28;20068;-68
2021/08/25 05:32:26;;;;;;;0.00;0.00;;;;;;;25.59;100.00;100361.22;5049314;28;20413;-68
2021/08/25 05:34:51;;;;;;;0.00;0.00;;;;;;;25.60;100.00;100367.53;5067235;28;20163;-72
2021/08/25 05:37:17;;;;;;;0.00;0.00;;;;;;;25.57;100.00;100365.03;5066664;28;20048;-70
2021/08/25 05:39:43;;;;;;;0.00;0.00;;;;;;;25.60;100.00;100362.09;5067374;28;20043;-72
2021/08/25 05:42:09;;;;;;;0.00;0.00;;;;;;;25.63;100.00;100370.88;5049904;28;20374;-70
2021/08/25 05:44:35;;;;;;;0.00;0.00;;;;;;;25.61;100.00;100362.00;5065838;28;20386;-71
2021/08/25 05:47:01;;;;;;;0.00;0.00;;;;;;;25.53;100.00;100358.97;5050124;28;20683;-70
2021/08/25 05:49:28;;;;;;;0.00;0.00;;;;;;;25.54;100.00;100357.09;5067619;28;20040;-70
2021/08/25 05:51:55;;;;;;;0.00;0.00;;;;;;;25.50;100.00;100352.84;5068855;28;20040;-67
2021/08/25 05:54:20;;;;;;;0.00;0.00;;;;;;;25.48;100.00;100365.69;5047175;28;20052;-73
2021/08/25 05:56:46;;;;;;;0.00;0.00;;;;;;;25.47;100.00;100355.78;5049202;28;20098;-76
2021/08/25 05:59:12;;;;;;;0.00;0.00;;;;;;;25.47;100.00;100353.94;5049654;28;20047;-73
2021/08/25 06:01:38;;;;;;;0.00;0.00;;;;;;;25.48;100.00;100349.41;5048375;28;20421;-71
2021/08/25 06:04:04;;;;;;;0.00;0.00;;;;;;;25.47;100.00;100344.94;5066568;28;20041;-74
2021/08/25 06:06:36;;;;;;;0.00;0.00;;;;;;;25.51;100.00;100343.72;5066982;28;20033;-70
2021/08/25 06:09:06;;;;;;;0.17;0.00;;;;;;;25.52;100.00;100354.47;5067037;28;20061;-71
2021/08/25 06:11:36;;;;;;;0.00;0.00;;;;;;;25.54;100.00;100343.50;5062879;28;20819;-73
2021/08/25 06:14:04;;;;;;;0.00;0.00;;;;;;;25.55;100.00;100351.56;5029478;28;20044;-72
2021/08/25 06:16:32;;;;;;;0.00;0.00;;;;;;;25.57;100.00;100351.44;5067230;28;20457;-73
2021/08/25 06:18:58;;;;;;;0.00;0.00;;;;;;;25.57;100.00;100348.72;5048107;28;20048;-71
2021/08/25 06:21:25;;;;;;;0.00;0.00;;;;;;;25.59;100.00;100350.34;5049285;28;20068;-74
2021/08/25 06:23:52;;;;;;;0.00;0.00;;;;;;;25.60;100.00;100345.81;5049509;28;20082;-67
